Terminal Aerodrome Forecast
Issued by NWS Albuquerque, NM

Home | Current Version | Previous Version | Text Only | Print | Product List | Glossary On
Versions: 1 2 3 4 5 6 7 8 9 10 11 12 13
000
FTUS45 KABQ 291126
TAFABQ
TAF
KABQ 291126Z 2912/3012 36008KT P6SM BKN140
     FM291500 07008KT P6SM BKN150
     FM291800 17010KT P6SM BKN150
     FM300300 12010KT P6SM VCSH BKN090 BKN180
     FM300900 VRB05KT P6SM BKN080 BKN200=

USA.gov is the U.S. government's official web portal to all federal, state and local government web resources and services.